Latest Weather Observations for Longerenong

IDV60801

Issued at 3:32 pm EDT Saturday 10 December 2016 (issued every 30 minutes, with the page automatically refreshed every 10 minutes)

About weather observations | Map of weather stations | Latest weather observations for VIC | Other Formats
Station Details ID: 079028 Name: LONGERENONG Lat: -36.67 Lon: 142.30 Height: 133.0 m
Data from the previous 72 hours. | See also: Recent months at Longerenong
Date/Time
EDT
Temp
°C
App
Temp
°C
Dew
Point
°C
Rel
Hum
%
Delta-T
°C
Wind Press
QNH
hPa
Press
MSL
hPa
Rain since
9am
mm
Dir  Spd
km/h
Gust
km/h
Spd
kts
Gust
kts
10/03:30pm 23.5 20.2 6.3 33 8.9 WSW 13 24 7 13 - - 0.0
10/03:00pm 22.8 20.2 6.1 34 8.5 W 9 19 5 10 - - 0.0
10/02:30pm 21.6 19.0 5.9 36 7.9 W 9 20 5 11 - - 0.0
10/02:00pm 21.3 18.2 5.6 36 7.9 SSW 11 24 6 13 - - 0.0
10/01:30pm 21.3 18.2 5.6 36 7.9 S 11 24 6 13 - - 0.0
10/01:00pm 19.6 16.4 4.9 38 7.2 SSW 11 19 6 10 - - 0.0
10/12:30pm 18.9 16.7 5.4 41 6.6 SW 6 15 3 8 - - 0.0
10/12:00pm 19.0 16.3 5.5 41 6.6 W 9 20 5 11 - - 0.0
10/11:30am 18.6 16.0 6.1 44 6.2 WSW 9 20 5 11 - - 0.0
10/11:00am 16.3 13.8 5.0 47 5.4 SSW 7 15 4 8 - - 0.0
10/10:30am 15.8 13.4 5.4 50 5.0 SE 7 13 4 7 - - 0.0
10/10:00am 14.7 12.4 5.5 54 4.4 WSW 7 13 4 7 - - 0.0
10/09:30am 13.9 12.1 5.3 56 4.1 WSW 4 6 2 3 - - 0.0
10/09:00am 13.2 11.4 5.4 59 3.7 E 4 7 2 4 - - 0.0
10/08:30am 12.3 9.8 5.0 61 3.4 SE 7 13 4 7 - - 0.0
10/08:00am 12.4 10.5 6.7 68 2.7 SE 6 13 3 7 - - 0.0
10/07:30am 10.2 8.6 6.5 78 1.7 SSE 4 9 2 5 - - 0.0
10/07:00am 7.4 5.7 5.7 89 0.8 S 4 6 2 3 - - 0.0
10/06:30am 4.8 2.6 3.3 90 0.6 S 4 6 2 3 - - 0.0
10/06:00am 4.4 1.7 2.8 89 0.7 S 6 6 3 3 - - 0.0
10/05:30am 5.9 3.3 4.4 90 0.6 SSE 7 9 4 5 - - 0.0
10/05:00am 5.3 2.8 4.0 91 0.6 SSE 6 6 3 3 - - 0.0
10/04:30am 5.2 2.7 3.9 91 0.6 S 6 7 3 4 - - 0.0
10/04:00am 5.5 2.9 4.0 90 0.6 S 7 7 4 4 - - 0.0
10/03:30am 5.3 2.8 3.6 89 0.7 SSW 6 6 3 3 - - 0.0
10/03:00am 5.9 3.8 4.1 88 0.8 S 4 7 2 4 - - 0.0
10/02:30am 5.6 3.0 3.1 84 1.0 SSW 6 7 3 4 - - 0.0
10/02:00am 7.3 4.7 4.4 82 1.3 S 7 13 4 7 - - 0.0
10/01:30am 7.7 5.3 5.2 84 1.1 S 7 11 4 6 - - 0.0
10/01:00am 9.1 6.4 5.8 80 1.5 S 9 11 5 6 - - 0.0
10/12:30am 9.7 6.4 6.2 79 1.6 S 13 19 7 10 - - 0.0
10/12:00am 9.7 6.7 6.1 78 1.7 SSW 11 13 6 7 - - 0.0
 
Date/Time
EDT
Temp
°C
App
Temp
°C
Dew
Point
°C
Rel
Hum
%
Delta-T
°C
Wind Press
QNH
hPa
Press
MSL
hPa
Rain since
9am
mm
Dir  Spd
km/h
Gust
km/h
Spd
kts
Gust
kts
09/11:30pm 10.9 8.0 6.3 73 2.2 SSW 11 13 6 7 - - 0.0
09/11:00pm 11.5 8.2 6.2 70 2.5 S 13 19 7 10 - - 0.0
09/10:30pm 12.1 8.9 6.8 70 2.5 S 13 20 7 11 - - 0.0
09/10:00pm 11.3 8.6 5.8 69 2.6 S 9 11 5 6 - - 0.0
09/09:30pm 12.5 9.7 5.2 61 3.4 SSW 9 15 5 8 - - 0.0
09/09:00pm 14.0 9.8 5.6 57 4.0 SSW 17 24 9 13 - - 0.0
09/08:30pm 14.8 10.3 6.1 56 4.2 S 19 26 10 14 - - 0.0
09/08:00pm 15.4 10.7 5.9 53 4.6 S 20 30 11 16 - - 0.0
09/07:30pm 16.2 11.3 5.2 48 5.3 SW 20 33 11 18 - - 0.0
09/07:00pm 16.9 11.7 5.5 47 5.5 SW 22 32 12 17 - - 0.0
09/06:30pm 17.1 11.4 5.1 45 5.8 S 24 35 13 19 - - 0.0
09/06:00pm 18.8 13.8 4.6 39 6.9 SSW 20 32 11 17 - - 0.0
09/05:30pm 18.9 13.8 4.3 38 7.0 SSW 20 35 11 19 - - 0.0
09/05:00pm 19.1 14.1 4.5 38 7.1 SSW 20 35 11 19 - - 0.0
09/04:30pm 19.7 14.3 4.6 37 7.3 SSW 22 37 12 20 - - 0.0
09/04:00pm 19.4 14.0 4.4 37 7.2 SSW 22 32 12 17 - - 0.0
09/03:30pm 19.0 13.1 4.0 37 7.2 S 24 37 13 20 - - 0.0
09/03:00pm 19.2 13.3 3.8 36 7.3 SSW 24 37 13 20 - - 0.0
09/02:30pm 18.9 13.8 4.3 38 7.0 SSW 20 35 11 19 - - 0.0
09/02:00pm 17.9 13.4 4.1 40 6.6 SSW 17 28 9 15 - - 0.0
09/01:30pm 16.9 11.9 3.6 41 6.2 SSW 19 33 10 18 - - 0.0
09/01:00pm 16.5 10.9 3.6 42 6.0 SSW 22 33 12 18 - - 0.0
09/12:30pm 16.7 11.1 3.4 41 6.2 SSW 22 33 12 18 - - 0.0
09/12:00pm 14.7 8.5 4.4 50 4.8 SW 26 35 14 19 - - 0.0
09/11:30am 15.0 8.5 2.9 44 5.5 SSW 26 35 14 19 - - 0.0
09/11:00am 15.6 8.9 3.7 45 5.5 SSW 28 37 15 20 - - 0.0
09/10:30am 14.4 7.6 3.2 47 5.1 S 28 37 15 20 - - 0.0
09/10:00am 14.2 8.4 4.5 52 4.5 SSW 24 33 13 18 - - 0.0
09/09:30am 14.1 8.2 6.0 58 3.9 SSW 26 37 14 20 - - 0.0
09/09:00am 12.5 7.8 6.1 65 3.0 SSW 20 33 11 18 - - 0.8
09/08:30am 11.8 7.3 7.1 73 2.3 SW 20 26 11 14 - - 0.8
09/08:00am 10.8 6.9 7.3 79 1.7 WSW 17 24 9 13 - - 0.8
09/07:30am 9.9 7.8 8.2 89 0.8 WSW 9 15 5 8 - - 0.8
09/07:00am 8.2 6.2 7.1 93 0.5 W 7 11 4 6 - - 0.8
09/06:30am 7.0 4.3 5.8 92 0.5 WNW 9 11 5 6 - - 0.8
09/06:00am 7.6 5.0 6.2 91 0.6 W 9 11 5 6 - - 0.8
09/05:30am 8.1 4.9 6.7 91 0.7 WSW 13 17 7 9 - - 0.8
09/05:00am 8.5 5.3 6.8 89 0.8 SW 13 17 7 9 - - 0.8
09/04:30am 8.6 5.4 6.7 88 0.9 SW 13 20 7 11 - - 0.8
09/04:00am 9.0 5.5 7.0 87 0.9 SW 15 20 8 11 - - 0.8
09/03:30am 9.2 5.7 7.0 86 1.0 SW 15 22 8 12 - - 0.8
09/03:00am 8.8 5.1 6.1 83 1.2 WSW 15 24 8 13 - - 0.8
09/02:30am 9.7 6.1 6.8 82 1.4 WSW 15 22 8 12 - - 0.8
09/02:00am 9.7 5.1 6.6 81 1.5 WSW 20 26 11 14 - - 0.8
09/01:30am 10.2 5.6 6.7 79 1.7 SW 20 30 11 16 - - 0.8
09/01:00am 10.5 6.3 7.4 81 1.5 SW 19 33 10 18 - - 0.8
09/12:30am 10.1 5.7 7.3 83 1.3 WSW 20 28 11 15 - - 0.8
09/12:00am 11.0 6.1 6.9 76 2.0 SW 22 33 12 18 - - 0.8
 
Date/Time
EDT
Temp
°C
App
Temp
°C
Dew
Point
°C
Rel
Hum
%
Delta-T
°C
Wind Press
QNH
hPa
Press
MSL
hPa
Rain since
9am
mm
Dir  Spd
km/h
Gust
km/h
Spd
kts
Gust
kts
08/11:30pm 10.9 6.6 6.8 76 2.0 SW 19 28 10 15 - - 0.8
08/11:00pm 11.3 6.9 6.6 73 2.2 SW 19 30 10 16 - - 0.8
08/10:30pm 11.4 6.9 6.9 74 2.2 WSW 20 32 11 17 - - 0.8
08/10:00pm 11.0 6.8 7.3 78 1.8 WSW 19 24 10 13 - - 0.8
08/09:30pm 11.0 7.2 7.7 80 1.6 SW 17 24 9 13 - - 0.8
08/09:00pm 11.9 6.0 7.6 75 2.1 SW 28 44 15 24 - - 0.8
08/08:30pm 11.4 6.5 8.6 83 1.4 SW 24 37 13 20 - - 0.8
08/08:06pm 13.0 7.1 8.9 76 2.1 SW 30 48 16 26 - - 0.8
08/08:00pm 12.9 7.4 9.2 78 1.9 WSW 28 48 15 26 - - 0.8
08/07:30pm 13.3 7.3 8.6 73 2.4 SW 30 43 16 23 - - 0.6
08/07:05pm 13.8 7.9 10.4 80 1.8 SW 32 52 17 28 - - 0.6
08/07:00pm 13.1 5.8 8.6 74 2.3 WSW 37 52 20 28 - - 0.6
08/06:30pm 16.9 9.9 6.7 51 5.1 WSW 33 50 18 27 - - 0.6
08/06:00pm 17.6 9.1 6.8 49 5.4 WSW 41 61 22 33 - - 0.6
08/05:54pm 17.3 9.2 7.1 51 5.1 WSW 39 61 21 33 - - 0.6
08/05:47pm 17.1 10.4 8.3 56 4.5 WSW 33 52 18 28 - - 0.6
08/05:30pm 14.6 6.4 8.3 66 3.2 W 41 65 22 35 - - 0.6
08/05:00pm 18.1 9.7 7.2 49 5.5 WSW 41 63 22 34 - - 0.6
08/04:32pm 15.5 9.7 9.6 68 3.1 WSW 30 56 16 30 - - 0.4
08/04:30pm 16.4 10.9 9.3 63 3.7 WSW 28 41 15 22 - - 0.2
08/04:06pm 17.9 11.7 9.3 57 4.5 SW 32 50 17 27 - - 0.2
08/04:00pm 17.3 9.5 8.4 56 4.6 WSW 39 54 21 29 - - 0.2
08/03:48pm 18.1 11.7 9.2 56 4.7 W 33 52 18 28 - - 0.2
08/03:30pm 15.0 9.0 10.0 72 2.6 W 32 48 17 26 - - 0.2
08/03:19pm 13.5 4.7 9.6 77 2.0 W 46 69 25 37 - - 0.2
08/03:00pm 18.5 9.0 5.0 41 6.6 W 44 65 24 35 - - 0.2
08/02:30pm 20.8 11.1 6.0 38 7.4 W 46 67 25 36 - - 0.2
08/02:13pm 19.9 12.4 6.3 41 6.8 WSW 35 56 19 30 - - 0.2
08/02:00pm 19.8 11.1 5.8 40 7.0 W 41 56 22 30 - - 0.2
08/01:30pm 17.8 9.4 7.2 50 5.4 W 41 59 22 32 - - 0.2
08/01:02pm 20.7 12.5 8.0 44 6.6 W 41 59 22 32 - - 0.2
08/01:00pm 20.6 12.0 8.3 45 6.5 W 43 59 23 32 - - 0.2
08/12:30pm 18.3 8.2 5.8 44 6.2 W 48 69 26 37 - - 0.2
08/12:04pm 19.3 10.3 7.1 45 6.2 W 44 65 24 35 - - 0.2
08/12:00pm 18.1 9.7 7.2 49 5.5 W 41 57 22 31 - - 0.2
08/11:40am 19.4 10.5 7.5 46 6.1 W 44 65 24 35 - - 0.2
08/11:30am 17.8 8.0 7.2 50 5.4 W 48 63 26 34 - - 0.2
08/11:00am 17.1 8.6 8.5 57 4.4 W 43 63 23 34 - - 0.0
08/10:49am 18.3 11.1 9.1 55 4.8 W 37 57 20 31 - - 0.0
08/10:30am 17.8 11.3 10.4 62 4.0 W 35 50 19 27 - - 0.0
08/10:00am 16.5 8.1 9.7 64 3.6 W 44 63 24 34 - - 0.0
08/09:48am 16.2 9.2 10.1 67 3.2 W 37 61 20 33 - - 0.0
08/09:30am 15.0 8.0 9.8 71 2.7 W 37 54 20 29 - - 0.0
08/09:22am 15.0 9.8 10.4 74 2.4 W 28 52 15 28 - - 0.0
08/09:00am 14.0 9.8 11.2 83 1.5 W 24 35 13 19 - - 11.0
08/08:33am 13.5 7.7 10.9 84 1.4 W 32 52 17 28 - - 11.0
08/08:30am 13.6 7.6 10.8 83 1.5 W 33 46 18 25 - - 11.0
08/08:07am 13.8 8.1 11.3 85 1.3 W 32 50 17 27 - - 11.0
08/08:00am 13.8 8.1 11.8 88 1.1 W 33 48 18 26 - - 11.0
08/07:30am 14.7 8.1 13.7 94 0.6 W 41 63 22 34 - - 11.0
08/07:25am 14.7 7.1 13.7 94 0.6 W 46 65 25 35 - - 11.0
08/07:17am 16.9 12.3 16.1 95 0.5 NW 35 65 19 35 - - 11.0
08/07:14am 17.6 14.3 17.0 96 0.4 NNW 30 52 16 28 - - 10.8
08/07:00am 17.5 14.2 16.9 96 0.4 NNW 30 41 16 22 - - 10.0
08/06:39am 17.7 14.8 17.1 96 0.4 NNW 28 46 15 25 - - 9.4
08/06:30am 17.6 15.0 16.8 95 0.5 NNW 26 39 14 21 - - 9.4
08/06:08am 17.7 14.4 16.9 95 0.5 NNW 30 52 16 28 - - 9.4
08/06:00am 17.6 13.6 16.6 94 0.6 NNW 33 50 18 27 - - 9.2
08/05:30am 18.3 15.2 16.6 90 1.0 NNW 28 43 15 23 - - 4.6
08/05:00am 18.0 15.5 16.2 89 1.1 NNW 24 39 13 21 - - 4.2
08/04:30am 18.2 15.0 16.2 88 1.2 NW 28 41 15 22 - - 2.8
08/04:12am 18.8 14.9 14.5 76 2.5 NNW 28 67 15 36 - - 1.6
08/04:00am 18.4 14.4 13.1 71 3.0 N 26 39 14 21 - - 1.2
08/03:30am 21.2 16.6 11.0 52 5.6 N 26 37 14 20 - - 0.6
08/03:00am 21.1 16.2 11.4 54 5.4 N 28 41 15 22 - - 0.6
08/02:39am 21.6 16.2 11.0 51 5.9 N 30 50 16 27 - - 0.2
08/02:30am 25.3 19.5 7.9 33 9.3 N 28 37 15 20 - - 0.0
08/02:00am 25.3 19.5 7.9 33 9.3 N 28 48 15 26 - - 0.0
08/01:30am 24.6 20.3 7.7 34 9.0 NNE 20 32 11 17 - - 0.0
08/01:00am 24.4 20.3 8.0 35 8.8 NNE 19 30 10 16 - - 0.0
08/12:30am 24.9 20.5 7.5 33 9.2 NNE 20 30 11 16 - - 0.0
08/12:00am 25.4 21.0 7.5 32 9.5 N 20 32 11 17 - - 0.0
 
Date/Time
EDT
Temp
°C
App
Temp
°C
Dew
Point
°C
Rel
Hum
%
Delta-T
°C
Wind Press
QNH
hPa
Press
MSL
hPa
Rain since
9am
mm
Dir  Spd
km/h
Gust
km/h
Spd
kts
Gust
kts
07/11:30pm 25.0 20.8 7.6 33 9.3 NNE 19 30 10 16 - - 0.0
07/11:00pm 24.5 21.1 7.6 34 9.0 NNE 15 22 8 12 - - 0.0
07/10:30pm 24.4 21.7 7.5 34 8.9 NNE 11 15 6 8 - - 0.0
07/10:00pm 25.3 22.2 7.4 32 9.5 NNE 13 19 7 10 - - 0.0
07/09:30pm 25.4 23.5 7.5 32 9.5 N 7 13 4 7 - - 0.0
07/09:00pm 25.8 23.6 7.9 32 9.6 N 9 13 5 7 - - 0.0
07/08:30pm 26.5 24.0 8.0 31 10.0 N 11 15 6 8 - - 0.0
07/08:00pm 26.7 24.1 7.7 30 10.2 N 11 17 6 9 - - 0.0
07/07:30pm 27.8 24.4 7.6 28 10.9 N 15 22 8 12 - - 0.0
07/07:00pm 28.4 24.6 7.6 27 11.3 NNW 17 24 9 13 - - 0.0
07/06:30pm 29.1 24.0 7.7 26 11.7 NW 24 35 13 19 - - 0.0
07/06:00pm 28.7 24.8 7.3 26 11.6 NW 17 24 9 13 - - 0.0
07/05:30pm 30.0 25.2 7.2 24 12.4 NW 22 35 12 19 - - 0.0
07/05:00pm 29.5 24.6 6.8 24 12.2 NW 22 32 12 17 - - 0.0
07/04:30pm 30.1 25.9 4.0 19 13.4 NW 15 24 8 13 - - 0.0
07/04:00pm 29.3 24.6 0.9 16 13.8 WNW 15 26 8 14 - - 0.0

Other Formats:

Comma delimited format used in spreadsheet applications
http://www.bom.gov.au/fwo/IDV60801/IDV60801.95835.axf

JavaScript Object Notation format (JSON) in row-major order
http://www.bom.gov.au/fwo/IDV60801/IDV60801.95835.json